Time;durP1;ratioP1;P1;durP2;ratioP2;P2;SDS_P1;SDS_P2;PMS_P1;PMS_P2;Temp;Humidity;BMP_temperature;BMP_pressure;BME280_temperature;BME280_humidity;BME280_pressure;Samples;Min_cycle;Max_cycle;Signal;HPM_P1;HPM_P2
2021/08/08 00:02:24;;;;;;;19.80;11.33;;;;;;;;;;5112103;28;20458;-51
2021/08/08 00:04:53;;;;;;;19.97;11.10;;;;;;;;;;5112545;28;20454;-52
2021/08/08 00:07:37;;;;;;;15.70;9.73;;;;;;;;;;5112942;28;20500;-55
2021/08/08 00:10:13;;;;;;;15.83;9.37;;;;;;;;;;5113114;28;20544;-57
2021/08/08 00:12:41;;;;;;;15.77;8.63;;;;;;;;;;5112602;28;20467;-51
2021/08/08 00:15:26;;;;;;;19.63;11.10;;;;;;;;;;5113452;28;20513;-53
2021/08/08 00:17:55;;;;;;;8.00;4.60;;;;;;;;;;5112690;28;20444;-55
2021/08/08 00:20:23;;;;;;;6.67;4.23;;;;;;;;;;5111979;28;20465;-53
2021/08/08 00:22:58;;;;;;;20.83;13.77;;;;;;;;;;5103749;28;20471;-52
2021/08/08 00:25:28;;;;;;;8.70;4.97;;;;;;;;;;5112514;28;20534;-55
2021/08/08 00:27:55;;;;;;;9.90;2.97;;;;;;;;;;5111939;28;20486;-53
2021/08/08 00:30:23;;;;;;;21.97;17.33;;;;;;;;;;5112678;28;20457;-52
2021/08/08 00:32:50;;;;;;;9.13;6.47;;;;;;;;;;5113687;28;20447;-52
2021/08/08 00:35:19;;;;;;;11.50;8.50;;;;;;;;;;5113236;28;20492;-53
2021/08/08 00:38:03;;;;;;;25.20;18.37;;;;;;;;;;5113065;28;20518;-52
2021/08/08 00:40:32;;;;;;;69.00;48.53;;;;;;;;;;5112981;28;20464;-51
2021/08/08 00:42:59;;;;;;;26.70;17.50;;;;;;;;;;5112829;28;20488;-53
2021/08/08 00:45:29;;;;;;;28.63;14.80;;;;;;;;;;5113335;28;20442;-55
2021/08/08 00:47:57;;;;;;;7.00;3.20;;;;;;;;;;5113397;28;20516;-55
2021/08/08 00:50:24;;;;;;;12.60;7.33;;;;;;;;;;5113016;28;20814;-54
2021/08/08 00:53:07;;;;;;;13.50;6.33;;;;;;;;;;5113000;28;20566;-56
2021/08/08 00:55:36;;;;;;;42.37;24.20;;;;;;;;;;5111322;28;20480;-57
2021/08/08 00:58:05;;;;;;;14.50;8.80;;;;;;;;;;5113531;28;20470;-54
2021/08/08 01:00:33;;;;;;;15.30;7.83;;;;;;;;;;5113349;28;20457;-55
2021/08/08 01:03:03;;;;;;;60.27;37.17;;;;;;;;;;5113408;28;20474;-53
2021/08/08 01:06:07;;;;;;;27.07;16.50;;;;;;;;;;5112547;28;20461;-53
2021/08/08 01:08:34;;;;;;;17.87;7.97;;;;;;;;;;5116362;28;20501;-56
2021/08/08 01:11:03;;;;;;;43.07;30.60;;;;;;;;;;5116169;28;20474;-52
2021/08/08 01:13:45;;;;;;;6.53;4.70;;;;;;;;;;5116146;28;20454;-56
2021/08/08 01:16:14;;;;;;;14.90;10.07;;;;;;;;;;5116058;28;20492;-55
2021/08/08 01:18:42;;;;;;;8.17;4.87;;;;;;;;;;5116163;28;20457;-53
2021/08/08 01:21:12;;;;;;;12.30;7.37;;;;;;;;;;5116386;28;20471;-53
2021/08/08 01:23:40;;;;;;;11.17;6.57;;;;;;;;;;5116163;28;20488;-53
2021/08/08 01:26:09;;;;;;;10.57;5.20;;;;;;;;;;5116575;28;20490;-52
2021/08/08 01:28:38;;;;;;;3.90;2.13;;;;;;;;;;5116391;28;20476;-53
2021/08/08 01:31:05;;;;;;;11.47;4.00;;;;;;;;;;5116051;28;20456;-53
2021/08/08 01:33:32;;;;;;;5.10;2.53;;;;;;;;;;5116514;28;20465;-55
2021/08/08 01:36:00;;;;;;;13.07;8.33;;;;;;;;;;5116296;28;20486;-54
2021/08/08 01:38:29;;;;;;;4.10;2.30;;;;;;;;;;5115716;28;20526;-56
2021/08/08 01:41:01;;;;;;;6.70;4.00;;;;;;;;;;5115908;28;20426;-52
2021/08/08 01:43:34;;;;;;;4.93;2.73;;;;;;;;;;5115179;28;20477;-54
2021/08/08 01:46:04;;;;;;;4.20;2.33;;;;;;;;;;5115914;28;20513;-54
2021/08/08 01:48:33;;;;;;;6.13;2.67;;;;;;;;;;5115139;28;20493;-56
2021/08/08 01:51:02;;;;;;;2.80;1.40;;;;;;;;;;5115249;28;20491;-51
2021/08/08 01:53:30;;;;;;;5.20;2.03;;;;;;;;;;5115515;28;20524;-54
2021/08/08 01:55:58;;;;;;;8.13;2.23;;;;;;;;;;5115599;28;20551;-54
2021/08/08 01:58:38;;;;;;;3.50;1.70;;;;;;;;;;5114753;28;20866;-55
2021/08/08 02:01:05;;;;;;;4.77;2.30;;;;;;;;;;5114175;28;20457;-52
2021/08/08 02:03:36;;;;;;;5.87;2.10;;;;;;;;;;5113900;28;20469;-55
2021/08/08 02:06:05;;;;;;;2.57;1.50;;;;;;;;;;5113924;28;20502;-55
2021/08/08 02:08:34;;;;;;;5.43;2.33;;;;;;;;;;5114012;28;20514;-55
2021/08/08 02:11:02;;;;;;;9.70;4.90;;;;;;;;;;5114278;28;20533;-54
2021/08/08 02:13:30;;;;;;;4.70;1.97;;;;;;;;;;5114364;28;20594;-51
2021/08/08 02:15:59;;;;;;;8.33;2.13;;;;;;;;;;5113647;28;20461;-52
2021/08/08 02:18:28;;;;;;;9.30;3.53;;;;;;;;;;5113334;28;20909;-53
2021/08/08 02:20:56;;;;;;;6.73;2.60;;;;;;;;;;5111623;28;20494;-52
2021/08/08 02:23:24;;;;;;;9.80;2.77;;;;;;;;;;5113477;28;20466;-53
2021/08/08 02:25:59;;;;;;;8.53;2.40;;;;;;;;;;5117700;28;20509;-55
2021/08/08 02:28:26;;;;;;;10.23;2.33;;;;;;;;;;5134370;28;20484;-55
2021/08/08 02:30:54;;;;;;;7.17;2.97;;;;;;;;;;5113483;28;20448;-54
2021/08/08 02:33:24;;;;;;;8.60;2.53;;;;;;;;;;5093719;28;20462;-51
2021/08/08 02:35:51;;;;;;;4.67;2.00;;;;;;;;;;5093990;28;20467;-53
2021/08/08 02:38:18;;;;;;;7.20;2.40;;;;;;;;;;5093832;28;20453;-52
2021/08/08 02:40:48;;;;;;;5.30;2.03;;;;;;;;;;5093700;28;20466;-54
2021/08/08 02:43:15;;;;;;;6.80;1.90;;;;;;;;;;5094090;28;20458;-50
2021/08/08 02:45:49;;;;;;;9.23;2.23;;;;;;;;;;5093360;28;20441;-53
2021/08/08 02:48:17;;;;;;;11.20;2.77;;;;;;;;;;5093189;28;20513;-51
2021/08/08 02:50:46;;;;;;;7.17;2.50;;;;;;;;;;5094008;28;20458;-53
2021/08/08 02:53:14;;;;;;;8.63;4.20;;;;;;;;;;5094050;28;20481;-50
2021/08/08 02:55:41;;;;;;;7.20;3.20;;;;;;;;;;5093522;28;20468;-53
2021/08/08 02:58:09;;;;;;;5.40;2.03;;;;;;;;;;5093634;28;20472;-52
2021/08/08 03:00:37;;;;;;;3.30;1.60;;;;;;;;;;5093854;28;20487;-51
2021/08/08 03:03:06;;;;;;;8.10;1.97;;;;;;;;;;5093823;28;20459;-54
2021/08/08 03:05:33;;;;;;;8.77;1.60;;;;;;;;;;5093605;28;20502;-53
2021/08/08 03:08:09;;;;;;;7.97;1.67;;;;;;;;;;5093455;28;20494;-52
2021/08/08 03:10:38;;;;;;;5.40;1.87;;;;;;;;;;5093336;28;20454;-55
2021/08/08 03:13:05;;;;;;;4.30;1.83;;;;;;;;;;5093523;28;20480;-49
2021/08/08 03:15:48;;;;;;;3.50;1.40;;;;;;;;;;5093924;28;20478;-54
2021/08/08 03:18:15;;;;;;;10.83;2.00;;;;;;;;;;5093448;28;20461;-52
2021/08/08 03:20:43;;;;;;;5.37;1.60;;;;;;;;;;5092713;28;20465;-54
2021/08/08 03:23:19;;;;;;;6.70;2.43;;;;;;;;;;5093107;28;20468;-50
2021/08/08 03:25:46;;;;;;;6.43;1.63;;;;;;;;;;5093554;28;20456;-51
2021/08/08 03:28:13;;;;;;;8.87;2.50;;;;;;;;;;5092927;28;20470;-53
2021/08/08 03:30:44;;;;;;;4.83;1.80;;;;;;;;;;5092858;28;20460;-52
2021/08/08 03:33:11;;;;;;;5.70;1.77;;;;;;;;;;5093360;28;20457;-51
2021/08/08 03:35:39;;;;;;;9.20;1.70;;;;;;;;;;5092861;28;20457;-49
2021/08/08 03:38:21;;;;;;;7.97;2.77;;;;;;;;;;5093448;28;20462;-53
2021/08/08 03:40:48;;;;;;;7.70;2.53;;;;;;;;;;5093045;28;20486;-51
2021/08/08 03:43:16;;;;;;;6.50;1.73;;;;;;;;;;5093188;28;20452;-50
2021/08/08 03:45:43;;;;;;;5.37;2.30;;;;;;;;;;5093631;28;20456;-53
2021/08/08 03:48:11;;;;;;;6.53;2.17;;;;;;;;;;5093079;28;20488;-51
2021/08/08 03:50:39;;;;;;;6.87;2.83;;;;;;;;;;5093317;28;20780;-53
2021/08/08 03:53:09;;;;;;;7.60;2.00;;;;;;;;;;5093913;28;20454;-55
2021/08/08 03:55:38;;;;;;;16.50;3.40;;;;;;;;;;5093573;28;20456;-52
2021/08/08 03:58:05;;;;;;;5.90;2.50;;;;;;;;;;5093978;28;20429;-55
2021/08/08 04:00:35;;;;;;;6.30;2.87;;;;;;;;;;5093095;28;20456;-49
2021/08/08 04:03:02;;;;;;;5.63;2.07;;;;;;;;;;5093592;28;20479;-53
2021/08/08 04:05:29;;;;;;;8.80;2.23;;;;;;;;;;5092647;28;20470;-52
2021/08/08 04:07:56;;;;;;;5.80;1.97;;;;;;;;;;5093169;28;20480;-51
2021/08/08 04:10:24;;;;;;;6.17;2.23;;;;;;;;;;5093125;28;20457;-52
2021/08/08 04:12:54;;;;;;;7.43;2.43;;;;;;;;;;5093541;28;20630;-54
2021/08/08 04:15:22;;;;;;;6.93;2.27;;;;;;;;;;5093085;28;20508;-55
2021/08/08 04:17:49;;;;;;;6.50;2.80;;;;;;;;;;5092941;28;20449;-51
2021/08/08 04:20:17;;;;;;;14.97;2.43;;;;;;;;;;5093744;28;20545;-53
2021/08/08 04:22:44;;;;;;;9.00;2.00;;;;;;;;;;5093636;28;20737;-53
2021/08/08 04:25:21;;;;;;;7.40;2.80;;;;;;;;;;5093246;28;20456;-53
2021/08/08 04:27:48;;;;;;;7.53;2.60;;;;;;;;;;5093252;28;20459;-54
2021/08/08 04:30:17;;;;;;;9.97;3.20;;;;;;;;;;5092388;28;20452;-48
2021/08/08 04:35:48;;;;;;;9.37;3.07;;;;;;;;;;5093543;28;20414;-53
2021/08/08 04:38:15;;;;;;;5.97;1.80;;;;;;;;;;5107367;28;20522;-53
2021/08/08 04:40:42;;;;;;;6.27;2.07;;;;;;;;;;5095357;28;20493;-55
2021/08/08 04:43:11;;;;;;;8.77;2.57;;;;;;;;;;5096975;28;20537;-54
2021/08/08 04:45:42;;;;;;;11.43;2.70;;;;;;;;;;5113134;28;20452;-52
2021/08/08 04:48:10;;;;;;;6.10;2.17;;;;;;;;;;5112854;28;20715;-50
2021/08/08 04:50:37;;;;;;;7.20;2.77;;;;;;;;;;5113672;28;20455;-54
2021/08/08 04:53:04;;;;;;;8.37;2.23;;;;;;;;;;5114921;28;20672;-54
2021/08/08 04:55:33;;;;;;;10.87;3.70;;;;;;;;;;5101403;28;20449;-55
2021/08/08 04:58:21;;;;;;;5.90;2.80;;;;;;;;;;5116660;28;20459;-53
2021/08/08 05:00:55;;;;;;;7.50;2.13;;;;;;;;;;5116688;28;20460;-55
2021/08/08 05:03:23;;;;;;;6.83;2.00;;;;;;;;;;5113638;28;20810;-58
2021/08/08 05:06:00;;;;;;;11.03;3.17;;;;;;;;;;5117601;28;20459;-56
2021/08/08 05:08:27;;;;;;;10.60;2.40;;;;;;;;;;5101362;28;20480;-54
2021/08/08 05:10:55;;;;;;;7.70;2.50;;;;;;;;;;5096023;28;20487;-53
2021/08/08 05:13:29;;;;;;;4.60;2.43;;;;;;;;;;5104622;28;20445;-54
2021/08/08 05:15:58;;;;;;;7.73;2.20;;;;;;;;;;5108375;28;20465;-57
2021/08/08 05:18:28;;;;;;;9.50;3.03;;;;;;;;;;5116533;28;20473;-54
2021/08/08 05:20:55;;;;;;;6.20;2.23;;;;;;;;;;5115411;28;20484;-51
2021/08/08 05:23:23;;;;;;;9.73;2.30;;;;;;;;;;5116206;28;20593;-55
2021/08/08 05:25:55;;;;;;;4.53;2.13;;;;;;;;;;5100867;28;20490;-53
2021/08/08 05:28:40;;;;;;;7.27;3.40;;;;;;;;;;5098757;28;20462;-53
2021/08/08 05:31:09;;;;;;;6.50;2.33;;;;;;;;;;5112352;28;20453;-55
2021/08/08 05:33:36;;;;;;;7.27;2.23;;;;;;;;;;5106734;28;20438;-52
2021/08/08 05:36:04;;;;;;;5.97;2.03;;;;;;;;;;5111044;28;20562;-55
2021/08/08 05:38:32;;;;;;;12.60;2.87;;;;;;;;;;5095705;28;20456;-52
2021/08/08 05:40:59;;;;;;;5.40;1.77;;;;;;;;;;5095824;28;20496;-54
2021/08/08 05:43:37;;;;;;;11.43;2.30;;;;;;;;;;5104684;28;20603;-51
2021/08/08 05:46:05;;;;;;;5.60;2.50;;;;;;;;;;5115490;28;20466;-54
2021/08/08 05:48:34;;;;;;;6.10;2.00;;;;;;;;;;5116685;28;20474;-52
2021/08/08 05:51:07;;;;;;;10.20;2.57;;;;;;;;;;5097006;28;20458;-57
2021/08/08 05:53:35;;;;;;;8.40;2.00;;;;;;;;;;5116564;28;20444;-54
2021/08/08 05:56:04;;;;;;;5.67;1.93;;;;;;;;;;5107576;28;20496;-54
2021/08/08 05:58:51;;;;;;;5.70;2.00;;;;;;;;;;5115817;28;20452;-51
2021/08/08 06:01:18;;;;;;;4.60;1.60;;;;;;;;;;5114820;28;20444;-54
2021/08/08 06:03:51;;;;;;;6.90;2.30;;;;;;;;;;5115453;28;20453;-54
2021/08/08 06:06:28;;;;;;;7.23;2.90;;;;;;;;;;5115913;28;20453;-57
2021/08/08 06:08:55;;;;;;;12.17;2.97;;;;;;;;;;5115345;28;20505;-53
2021/08/08 06:11:23;;;;;;;6.27;1.77;;;;;;;;;;5115245;28;20459;-50
2021/08/08 06:13:50;;;;;;;9.30;2.40;;;;;;;;;;5115337;28;20470;-53
2021/08/08 06:16:17;;;;;;;5.77;1.80;;;;;;;;;;5114574;28;20429;-52
2021/08/08 06:18:46;;;;;;;4.93;1.83;;;;;;;;;;5115073;28;20432;-51
2021/08/08 06:21:14;;;;;;;7.83;2.67;;;;;;;;;;5115646;28;20482;-55
2021/08/08 06:23:41;;;;;;;4.30;2.50;;;;;;;;;;5115694;28;20463;-53
2021/08/08 06:26:41;;;;;;;6.10;2.00;;;;;;;;;;5115272;28;20474;-56
2021/08/08 06:29:13;;;;;;;4.97;2.50;;;;;;;;;;5113092;28;20495;-53
2021/08/08 06:31:40;;;;;;;4.90;1.50;;;;;;;;;;5115522;28;20458;-54
2021/08/08 06:34:20;;;;;;;9.93;2.63;;;;;;;;;;5096978;28;20513;-56
2021/08/08 06:36:49;;;;;;;5.17;1.97;;;;;;;;;;5094735;28;20464;-56
2021/08/08 06:39:17;;;;;;;7.50;2.90;;;;;;;;;;5092830;28;20817;-53
2021/08/08 06:42:12;;;;;;;9.80;2.67;;;;;;;;;;5093573;28;20453;-54
2021/08/08 06:44:40;;;;;;;6.50;2.10;;;;;;;;;;5113472;28;20462;-53
2021/08/08 06:47:07;;;;;;;4.23;1.90;;;;;;;;;;5114354;28;20728;-52
2021/08/08 06:49:36;;;;;;;5.60;1.97;;;;;;;;;;5113832;28;20498;-52
2021/08/08 06:52:03;;;;;;;7.00;3.17;;;;;;;;;;5113853;28;20457;-52
2021/08/08 06:54:31;;;;;;;6.43;2.37;;;;;;;;;;5115150;28;20447;-55
2021/08/08 06:57:10;;;;;;;5.50;2.17;;;;;;;;;;5114197;28;20443;-54
2021/08/08 06:59:39;;;;;;;6.73;1.67;;;;;;;;;;5094343;28;20461;-52
2021/08/08 07:02:09;;;;;;;5.60;2.03;;;;;;;;;;5093010;28;20486;-52
2021/08/08 07:04:37;;;;;;;6.93;2.37;;;;;;;;;;5108371;28;20490;-53
2021/08/08 07:07:05;;;;;;;5.20;1.97;;;;;;;;;;5134357;28;20857;-54
2021/08/08 07:09:32;;;;;;;7.00;2.53;;;;;;;;;;5133500;28;20561;-52
2021/08/08 07:12:05;;;;;;;3.63;1.77;;;;;;;;;;5134575;28;20439;-50
2021/08/08 07:14:35;;;;;;;6.90;2.10;;;;;;;;;;5132555;28;20470;-55
2021/08/08 07:17:02;;;;;;;5.60;2.00;;;;;;;;;;5109201;28;20521;-54
2021/08/08 07:19:29;;;;;;;4.30;1.73;;;;;;;;;;5109355;28;20463;-53
2021/08/08 07:21:58;;;;;;;4.67;1.97;;;;;;;;;;5110431;28;20459;-56
2021/08/08 07:24:26;;;;;;;8.37;1.97;;;;;;;;;;5113542;28;20427;-51
2021/08/08 07:27:12;;;;;;;6.20;1.80;;;;;;;;;;5107472;28;20424;-51
2021/08/08 07:29:39;;;;;;;4.83;1.60;;;;;;;;;;5096804;28;20540;-57
2021/08/08 07:32:06;;;;;;;5.20;1.53;;;;;;;;;;5093356;28;20478;-53
2021/08/08 07:34:34;;;;;;;4.97;2.20;;;;;;;;;;5093837;28;20468;-54
2021/08/08 07:37:03;;;;;;;5.33;2.27;;;;;;;;;;5113109;28;20487;-56
2021/08/08 07:42:41;;;;;;;25.17;4.00;;;;;;;;;;5107214;28;20472;-55
2021/08/08 07:45:10;;;;;;;6.90;2.83;;;;;;;;;;5111782;28;20480;-55
2021/08/08 07:47:40;;;;;;;4.53;1.70;;;;;;;;;;5108536;28;20452;-55
2021/08/08 07:50:11;;;;;;;7.40;2.50;;;;;;;;;;5103806;28;20518;-53
2021/08/08 07:52:39;;;;;;;7.60;2.70;;;;;;;;;;5089605;28;20456;-53
2021/08/08 07:55:11;;;;;;;4.40;1.50;;;;;;;;;;5096644;28;20622;-56
2021/08/08 07:57:38;;;;;;;6.90;2.27;;;;;;;;;;5110654;28;20463;-54
2021/08/08 08:00:07;;;;;;;8.30;2.73;;;;;;;;;;5110928;28;20447;-55
2021/08/08 08:02:35;;;;;;;6.30;2.13;;;;;;;;;;5111865;28;20451;-54
2021/08/08 08:05:02;;;;;;;6.33;2.60;;;;;;;;;;5112289;28;20459;-55
2021/08/08 08:07:53;;;;;;;8.07;2.20;;;;;;;;;;5097285;28;20454;-53
2021/08/08 08:10:21;;;;;;;5.10;1.50;;;;;;;;;;5112296;28;20537;-55
2021/08/08 08:12:48;;;;;;;7.03;2.10;;;;;;;;;;5112369;28;20459;-52
2021/08/08 08:15:16;;;;;;;7.10;2.20;;;;;;;;;;5092627;28;20456;-57
2021/08/08 08:17:43;;;;;;;8.10;2.80;;;;;;;;;;5093985;28;20467;-51
2021/08/08 08:20:21;;;;;;;9.20;2.70;;;;;;;;;;5094614;28;20460;-53
2021/08/08 08:22:56;;;;;;;5.70;3.20;;;;;;;;;;5108262;28;20486;-52
2021/08/08 08:25:24;;;;;;;7.70;2.20;;;;;;;;;;5116474;28;20538;-53
2021/08/08 08:27:58;;;;;;;5.43;1.90;;;;;;;;;;5116096;28;20454;-55
2021/08/08 08:30:25;;;;;;;5.13;1.70;;;;;;;;;;5116668;28;20518;-58
2021/08/08 08:32:52;;;;;;;5.73;2.30;;;;;;;;;;5116171;28;20466;-52
2021/08/08 08:35:26;;;;;;;4.80;1.90;;;;;;;;;;5117026;28;20439;-53
2021/08/08 08:37:55;;;;;;;6.20;2.00;;;;;;;;;;5104283;28;20473;-54
2021/08/08 08:40:22;;;;;;;4.03;1.70;;;;;;;;;;5107441;28;20851;-57
2021/08/08 08:42:57;;;;;;;8.50;2.03;;;;;;;;;;5096868;28;20440;-49
2021/08/08 08:45:25;;;;;;;5.23;1.87;;;;;;;;;;5108454;28;20529;-55
2021/08/08 08:47:53;;;;;;;8.37;2.20;;;;;;;;;;5111172;28;20480;-56
2021/08/08 08:50:26;;;;;;;4.97;2.37;;;;;;;;;;5116263;28;20467;-57
2021/08/08 08:53:00;;;;;;;7.37;2.10;;;;;;;;;;5108863;28;20472;-53
2021/08/08 08:55:28;;;;;;;6.67;2.47;;;;;;;;;;5114981;28;20463;-53
2021/08/08 08:57:55;;;;;;;7.47;1.90;;;;;;;;;;5116271;28;20455;-51
2021/08/08 09:00:27;;;;;;;5.10;2.40;;;;;;;;;;5113421;28;20447;-57
2021/08/08 09:02:55;;;;;;;15.37;3.77;;;;;;;;;;5116930;28;20447;-55
2021/08/08 09:05:26;;;;;;;4.20;2.00;;;;;;;;;;5114251;28;20526;-56
2021/08/08 09:07:57;;;;;;;5.50;2.53;;;;;;;;;;5111387;28;20443;-55
2021/08/08 09:10:31;;;;;;;5.97;2.83;;;;;;;;;;5075559;28;20500;-56
2021/08/08 09:13:00;;;;;;;5.63;2.37;;;;;;;;;;5078958;28;20465;-56
2021/08/08 09:15:36;;;;;;;4.73;2.03;;;;;;;;;;5075017;28;20445;-56
2021/08/08 09:18:22;;;;;;;6.00;2.10;;;;;;;;;;5092054;28;20459;-54
2021/08/08 09:20:53;;;;;;;6.93;2.10;;;;;;;;;;5095223;28;20451;-54
2021/08/08 09:23:21;;;;;;;7.27;2.00;;;;;;;;;;5087320;28;20446;-55
2021/08/08 09:26:07;;;;;;;8.87;2.73;;;;;;;;;;5087409;28;20437;-56
2021/08/08 09:28:36;;;;;;;5.87;2.53;;;;;;;;;;5094534;28;20463;-54
2021/08/08 09:31:06;;;;;;;8.03;3.00;;;;;;;;;;5095748;28;20484;-55
2021/08/08 09:36:42;;;;;;;9.73;2.43;;;;;;;;;;5075456;28;20457;-57
2021/08/08 09:39:11;;;;;;;4.20;1.90;;;;;;;;;;5074714;28;20465;-57
2021/08/08 09:41:39;;;;;;;4.70;1.80;;;;;;;;;;5079466;28;20534;-56
2021/08/08 09:44:22;;;;;;;6.80;2.40;;;;;;;;;;5089890;28;20448;-53
2021/08/08 09:46:58;;;;;;;5.50;1.97;;;;;;;;;;5090454;28;20469;-57
2021/08/08 09:49:26;;;;;;;10.67;2.47;;;;;;;;;;5075173;28;20480;-56
2021/08/08 09:51:54;;;;;;;7.60;3.37;;;;;;;;;;5074246;28;20484;-55
2021/08/08 09:54:35;;;;;;;7.27;2.90;;;;;;;;;;5074372;28;20441;-57
2021/08/08 09:57:09;;;;;;;9.00;2.00;;;;;;;;;;5091426;28;20459;-52
2021/08/08 09:59:46;;;;;;;8.50;2.20;;;;;;;;;;5090153;28;20490;-54
2021/08/08 10:02:21;;;;;;;9.07;3.87;;;;;;;;;;5094657;28;20432;-52
2021/08/08 10:04:50;;;;;;;8.57;4.40;;;;;;;;;;5093284;28;20680;-56
2021/08/08 10:07:24;;;;;;;5.83;2.30;;;;;;;;;;5081702;28;20492;-57
2021/08/08 10:09:53;;;;;;;4.60;2.07;;;;;;;;;;5083302;28;20550;-57
2021/08/08 10:12:28;;;;;;;4.70;1.80;;;;;;;;;;5093404;28;20464;-55
2021/08/08 10:14:56;;;;;;;8.13;3.47;;;;;;;;;;5106227;28;20513;-50
2021/08/08 10:17:23;;;;;;;5.00;2.33;;;;;;;;;;5113346;28;20479;-57
2021/08/08 10:19:58;;;;;;;8.10;4.00;;;;;;;;;;5114078;28;20420;-56
2021/08/08 10:22:25;;;;;;;14.33;5.50;;;;;;;;;;5108415;28;20475;-54
2021/08/08 10:24:56;;;;;;;7.73;2.13;;;;;;;;;;5092450;28;20482;-53
2021/08/08 10:27:34;;;;;;;4.63;1.97;;;;;;;;;;5092516;28;20456;-58
2021/08/08 10:30:05;;;;;;;7.83;3.13;;;;;;;;;;5104625;28;20499;-57
2021/08/08 10:32:47;;;;;;;11.30;7.50;;;;;;;;;;5112113;28;20609;-56
2021/08/08 10:35:16;;;;;;;5.03;2.80;;;;;;;;;;5097425;28;20466;-54
2021/08/08 10:37:49;;;;;;;9.87;2.97;;;;;;;;;;5112304;28;20455;-56
2021/08/08 10:40:31;;;;;;;4.80;2.80;;;;;;;;;;5114045;28;20426;-55
2021/08/08 10:43:00;;;;;;;6.43;2.50;;;;;;;;;;5111161;28;20456;-54
2021/08/08 10:45:32;;;;;;;4.17;2.23;;;;;;;;;;5114328;28;20463;-56
2021/08/08 10:48:01;;;;;;;3.30;1.47;;;;;;;;;;5095259;28;20466;-52
2021/08/08 10:50:39;;;;;;;5.43;2.13;;;;;;;;;;5111959;28;20497;-57
2021/08/08 10:53:26;;;;;;;9.77;1.60;;;;;;;;;;5112275;28;20510;-55
2021/08/08 10:56:11;;;;;;;5.50;1.83;;;;;;;;;;5110564;28;20574;-54
2021/08/08 10:58:47;;;;;;;7.40;3.17;;;;;;;;;;5107330;28;20476;-54
2021/08/08 11:01:20;;;;;;;6.53;2.93;;;;;;;;;;5112141;28;20442;-55
2021/08/08 11:03:52;;;;;;;4.63;1.90;;;;;;;;;;5091202;28;20440;-57
2021/08/08 11:06:25;;;;;;;3.40;1.60;;;;;;;;;;5091955;28;20448;-55
2021/08/08 11:08:54;;;;;;;5.27;2.10;;;;;;;;;;5091712;28;20474;-54
2021/08/08 11:11:25;;;;;;;7.93;2.40;;;;;;;;;;5099775;28;21097;-54
2021/08/08 11:14:12;;;;;;;4.23;1.50;;;;;;;;;;5112302;28;20509;-55
2021/08/08 11:16:45;;;;;;;5.13;2.10;;;;;;;;;;5086212;28;20451;-53
2021/08/08 11:19:14;;;;;;;4.40;1.60;;;;;;;;;;5111918;28;20470;-57
2021/08/08 11:21:44;;;;;;;5.97;1.90;;;;;;;;;;5113023;28;20459;-53
2021/08/08 11:24:12;;;;;;;4.53;1.73;;;;;;;;;;5112776;28;20439;-54
2021/08/08 11:26:50;;;;;;;5.73;2.10;;;;;;;;;;5112336;28;20510;-59
2021/08/08 11:29:25;;;;;;;3.43;1.53;;;;;;;;;;5112940;28;20455;-55
2021/08/08 11:31:54;;;;;;;4.40;1.80;;;;;;;;;;5112193;28;20490;-57
2021/08/08 11:34:25;;;;;;;6.20;2.10;;;;;;;;;;5112216;28;20467;-54
2021/08/08 11:36:52;;;;;;;9.30;5.27;;;;;;;;;;5109673;28;20765;-54
2021/08/08 11:39:19;;;;;;;4.37;2.07;;;;;;;;;;5109984;28;20463;-56
2021/08/08 11:42:01;;;;;;;3.57;1.50;;;;;;;;;;5110620;28;20459;-56
2021/08/08 11:47:37;;;;;;;7.10;2.17;;;;;;;;;;5108272;28;20462;-57
2021/08/08 11:50:06;;;;;;;5.93;2.07;;;;;;;;;;5111638;28;20459;-54
2021/08/08 11:52:38;;;;;;;5.00;2.10;;;;;;;;;;5111418;28;20458;-53
2021/08/08 11:55:08;;;;;;;5.97;2.80;;;;;;;;;;5111793;28;20462;-56
2021/08/08 11:57:39;;;;;;;4.87;2.37;;;;;;;;;;5096031;28;20527;-55
2021/08/08 12:00:07;;;;;;;6.27;1.60;;;;;;;;;;5090685;28;20460;-54
2021/08/08 12:02:41;;;;;;;5.03;1.60;;;;;;;;;;5099448;28;20431;-55
2021/08/08 12:05:10;;;;;;;5.50;1.70;;;;;;;;;;5114539;28;20449;-58
2021/08/08 12:07:38;;;;;;;4.43;1.70;;;;;;;;;;5094650;28;20460;-52
2021/08/08 12:10:06;;;;;;;5.07;1.63;;;;;;;;;;5090664;28;20451;-56
2021/08/08 12:12:34;;;;;;;6.23;2.17;;;;;;;;;;5090847;28;20453;-58
2021/08/08 12:15:01;;;;;;;4.90;2.80;;;;;;;;;;5091274;28;20490;-53
2021/08/08 12:17:29;;;;;;;5.40;2.40;;;;;;;;;;5119400;28;20454;-57
2021/08/08 12:20:09;;;;;;;5.80;2.53;;;;;;;;;;5111045;28;20456;-55
2021/08/08 12:22:40;;;;;;;6.00;2.87;;;;;;;;;;5125407;28;20484;-57
2021/08/08 12:25:08;;;;;;;5.63;1.90;;;;;;;;;;5105327;28;20452;-55
2021/08/08 12:27:36;;;;;;;8.30;2.80;;;;;;;;;;5093207;28;20559;-56
2021/08/08 12:30:24;;;;;;;6.33;2.63;;;;;;;;;;5111021;28;20447;-57
2021/08/08 12:32:52;;;;;;;5.80;2.53;;;;;;;;;;5108695;28;20498;-57
2021/08/08 12:35:22;;;;;;;5.40;2.30;;;;;;;;;;5104355;28;20460;-53
2021/08/08 12:37:50;;;;;;;6.20;3.10;;;;;;;;;;5089307;28;20464;-54
2021/08/08 12:40:25;;;;;;;6.37;3.67;;;;;;;;;;5093670;28;20451;-55
2021/08/08 12:43:02;;;;;;;4.07;2.40;;;;;;;;;;5091550;28;20440;-57
2021/08/08 12:45:37;;;;;;;4.80;1.90;;;;;;;;;;5110446;28;20897;-53
2021/08/08 12:48:05;;;;;;;17.33;7.40;;;;;;;;;;5120778;28;20454;-56
2021/08/08 12:50:48;;;;;;;3.10;1.70;;;;;;;;;;5129653;28;20497;-58
2021/08/08 12:53:17;;;;;;;4.20;1.97;;;;;;;;;;5111782;28;20452;-56
2021/08/08 12:55:55;;;;;;;5.43;1.77;;;;;;;;;;5093400;28;20477;-58
2021/08/08 12:58:32;;;;;;;6.10;2.33;;;;;;;;;;5107466;28;20479;-59
2021/08/08 13:00:59;;;;;;;4.83;2.80;;;;;;;;;;5111203;28;20480;-57
2021/08/08 13:03:27;;;;;;;6.23;3.87;;;;;;;;;;5113643;28;20869;-52
2021/08/08 13:05:55;;;;;;;4.80;3.27;;;;;;;;;;5108079;28;20646;-52
2021/08/08 13:08:25;;;;;;;5.90;3.53;;;;;;;;;;5105843;28;20867;-57
2021/08/08 13:10:52;;;;;;;4.50;1.97;;;;;;;;;;5104972;28;20495;-57
2021/08/08 13:13:20;;;;;;;6.97;3.90;;;;;;;;;;5108539;28;20598;-56
2021/08/08 13:15:51;;;;;;;4.93;3.00;;;;;;;;;;5104976;28;20463;-53
2021/08/08 13:18:19;;;;;;;7.20;4.87;;;;;;;;;;5113521;28;20470;-60
2021/08/08 13:20:46;;;;;;;6.43;3.40;;;;;;;;;;5107275;28;20486;-55
2021/08/08 13:23:49;;;;;;;4.03;2.20;;;;;;;;;;5103224;28;20692;-57
2021/08/08 13:26:34;;;;;;;5.23;3.00;;;;;;;;;;5110108;28;20490;-51
2021/08/08 13:35:13;;;;;;;6.33;1.83;;;;;;;;;;5111008;28;20480;-57
2021/08/08 13:37:46;;;;;;;5.60;1.97;;;;;;;;;;5111526;28;20485;-57
2021/08/08 13:40:14;;;;;;;6.37;3.03;;;;;;;;;;5110411;28;20455;-55
2021/08/08 13:43:00;;;;;;;7.23;1.90;;;;;;;;;;5112269;28;20932;-52
2021/08/08 13:48:27;;;;;;;6.90;3.00;;;;;;;;;;5108400;28;20519;-55
2021/08/08 13:50:55;;;;;;;4.67;2.43;;;;;;;;;;5110662;28;20556;-53
2021/08/08 13:53:23;;;;;;;5.20;3.20;;;;;;;;;;5111771;28;20458;-52
2021/08/08 13:55:54;;;;;;;7.07;2.57;;;;;;;;;;5104839;28;20452;-51
2021/08/08 13:58:21;;;;;;;6.03;3.37;;;;;;;;;;5092178;28;20736;-53
2021/08/08 14:00:50;;;;;;;3.50;1.53;;;;;;;;;;5112931;28;20478;-56
2021/08/08 14:03:24;;;;;;;6.30;2.37;;;;;;;;;;5112922;28;20539;-54
2021/08/08 14:05:53;;;;;;;4.67;1.90;;;;;;;;;;5091508;28;20459;-54
2021/08/08 14:08:21;;;;;;;5.97;2.30;;;;;;;;;;5091083;28;20460;-57
2021/08/08 14:10:49;;;;;;;4.60;1.70;;;;;;;;;;5104052;28;20799;-57
2021/08/08 14:13:19;;;;;;;4.00;2.03;;;;;;;;;;5127044;28;20511;-57
2021/08/08 14:15:55;;;;;;;25.87;2.33;;;;;;;;;;5114403;28;20459;-58
2021/08/08 14:18:23;;;;;;;5.13;2.00;;;;;;;;;;5113594;28;20463;-57
2021/08/08 14:20:51;;;;;;;7.47;2.00;;;;;;;;;;5115153;28;20483;-55
2021/08/08 14:23:44;;;;;;;5.00;2.60;;;;;;;;;;5118807;28;20458;-54
2021/08/08 14:26:11;;;;;;;9.70;4.33;;;;;;;;;;5114118;28;20471;-56
2021/08/08 14:28:42;;;;;;;5.30;3.13;;;;;;;;;;5113593;28;20459;-53
2021/08/08 14:31:09;;;;;;;4.80;2.07;;;;;;;;;;5111393;28;20494;-58
2021/08/08 14:33:38;;;;;;;6.27;2.80;;;;;;;;;;5115201;28;20555;-57
2021/08/08 14:39:02;;;;;;;6.17;2.33;;;;;;;;;;5113091;28;20472;-57
2021/08/08 14:41:49;;;;;;;4.87;2.63;;;;;;;;;;5111824;28;20467;-58
2021/08/08 14:44:25;;;;;;;6.47;2.27;;;;;;;;;;5118625;28;20451;-56
2021/08/08 14:47:11;;;;;;;8.27;3.10;;;;;;;;;;5108608;28;20646;-58
2021/08/08 14:49:39;;;;;;;10.17;2.67;;;;;;;;;;5093469;28;20451;-56
2021/08/08 14:52:09;;;;;;;5.77;1.50;;;;;;;;;;5106444;28;20487;-55
2021/08/08 14:54:40;;;;;;;6.50;1.90;;;;;;;;;;5112985;28;20470;-57
2021/08/08 14:57:07;;;;;;;4.77;2.17;;;;;;;;;;5113973;28;20495;-55
2021/08/08 14:59:43;;;;;;;4.13;1.40;;;;;;;;;;5113860;28;20459;-59
2021/08/08 15:02:17;;;;;;;3.67;1.60;;;;;;;;;;5113219;28;20443;-55
2021/08/08 15:04:44;;;;;;;4.53;1.57;;;;;;;;;;5113104;28;20454;-58
2021/08/08 15:07:12;;;;;;;4.37;1.90;;;;;;;;;;5120316;28;20466;-55
2021/08/08 15:09:41;;;;;;;6.43;2.90;;;;;;;;;;5116934;28;20470;-60
2021/08/08 15:12:12;;;;;;;8.13;3.80;;;;;;;;;;5109765;28;20448;-55
2021/08/08 15:14:40;;;;;;;10.03;4.37;;;;;;;;;;5108829;28;20459;-54
2021/08/08 15:17:08;;;;;;;5.17;1.83;;;;;;;;;;5108857;28;20466;-58
2021/08/08 15:19:35;;;;;;;6.27;3.50;;;;;;;;;;5102925;28;20463;-55
2021/08/08 15:22:03;;;;;;;4.53;1.80;;;;;;;;;;5098300;28;20866;-56
2021/08/08 15:27:22;;;;;;;8.80;2.27;;;;;;;;;;5113345;28;20452;-55
2021/08/08 15:32:59;;;;;;;6.17;3.93;;;;;;;;;;5099998;28;20477;-58
2021/08/08 15:35:42;;;;;;;5.07;2.37;;;;;;;;;;5101916;28;20466;-61